createdAt,value
2019-04-26T00:04:00.615Z,97475.58
2019-04-26T00:09:25.120Z,97468.55
2019-04-26T00:14:52.420Z,97472.98
2019-04-26T00:19:57.955Z,97474.45
2019-04-26T00:25:03.301Z,97468.32
2019-04-26T00:30:08.818Z,97458.81
2019-04-26T00:35:14.094Z,97462.22
2019-04-26T00:40:20.288Z,97459.68
2019-04-26T00:45:29.108Z,97455.73
2019-04-26T00:50:36.185Z,97456.14
2019-04-26T00:55:42.121Z,97455.14
2019-04-26T01:00:48.109Z,97447.96
2019-04-26T01:06:00.287Z,97455.53
2019-04-26T01:11:01.669Z,97465.09
2019-04-26T01:16:06.959Z,97454.16
2019-04-26T01:21:14.756Z,97456.33
2019-04-26T01:26:27.332Z,97452.67
2019-04-26T01:31:35.991Z,97449.27
2019-04-26T01:36:42.513Z,97444.95
2019-04-26T01:41:55.846Z,97450.39
2019-04-26T01:47:01.902Z,97456.91
2019-04-26T01:52:10.804Z,97454.61
2019-04-26T01:57:16.552Z,97460.64
2019-04-26T02:02:46.077Z,97466.15
2019-04-26T02:07:51.671Z,97466.49
2019-04-26T02:12:57.842Z,97480.64
2019-04-26T02:18:04.157Z,97475.14
2019-04-26T02:23:17.309Z,97487.95
2019-04-26T02:28:22.619Z,97485.54
2019-04-26T02:33:29.680Z,97495.28
2019-04-26T02:38:36.632Z,97497.47
2019-04-26T02:43:45.672Z,97485.85
2019-04-26T02:49:15.180Z,97488.38
2019-04-26T02:54:44.963Z,97490.20
2019-04-26T02:59:55.104Z,97484.47
2019-04-26T03:05:04.661Z,97486.64
2019-04-26T03:10:10.530Z,97517.78
2019-04-26T03:15:46.395Z,97519.02
2019-04-26T03:20:58.332Z,97518.78
2019-04-26T03:26:27.362Z,97526.58
2019-04-26T03:31:55.093Z,97528.99
2019-04-26T03:37:50.074Z,97533.04
2019-04-26T03:43:23.852Z,97530.34
2019-04-26T03:48:59.634Z,97541.70
2019-04-26T03:54:14.619Z,97534.77
2019-04-26T03:59:48.366Z,97527.62
2019-04-26T04:05:05.411Z,97530.25
2019-04-26T04:10:15.659Z,97543.70
2019-04-26T04:15:29.506Z,97551.69
2019-04-26T04:21:02.724Z,97550.20
2019-04-26T04:26:09.018Z,97585.97
2019-04-26T04:31:25.111Z,97597.23
2019-04-26T04:36:44.570Z,97613.80
2019-04-26T04:42:26.866Z,97612.95
2019-04-26T04:47:47.196Z,97630.71
2019-04-26T04:53:25.060Z,97633.73
2019-04-26T04:58:37.842Z,97636.33
2019-04-26T05:04:10.810Z,97633.97
2019-04-26T05:09:28.541Z,97630.52
2019-04-26T05:15:12.778Z,97627.38
2019-04-26T05:20:29.230Z,97627.02
2019-04-26T05:26:33.478Z,97630.71
2019-04-26T05:31:51.541Z,97630.16
2019-04-26T05:37:25.662Z,97632.47
2019-04-26T05:43:24.907Z,97634.41
2019-04-26T05:48:47.608Z,97651.02
2019-04-26T05:54:46.994Z,97669.14
2019-04-26T06:00:04.097Z,97679.52
2019-04-26T06:05:27.721Z,97667.45
2019-04-26T06:11:00.539Z,97661.95
2019-04-26T06:16:26.423Z,97661.55
2019-04-26T06:21:54.037Z,97665.30
2019-04-26T06:27:57.035Z,97676.67
2019-04-26T06:33:16.005Z,97679.73
2019-04-26T06:39:11.134Z,97704.25
2019-04-26T06:44:21.116Z,97700.89
2019-04-26T06:50:15.022Z,97708.52
2019-04-26T06:55:43.885Z,97705.63
2019-04-26T07:01:15.029Z,97716.19
2019-04-26T07:06:34.846Z,97705.75
2019-04-26T07:12:37.593Z,97698.78
2019-04-26T07:18:22.320Z,97702.95
2019-04-26T07:24:13.341Z,97697.63
2019-04-26T07:29:56.433Z,97686.17
2019-04-26T07:35:14.449Z,97680.00
2019-04-26T07:41:29.078Z,97688.51
2019-04-26T07:47:21.158Z,97683.98
2019-04-26T07:52:55.962Z,97684.22
2019-04-26T07:58:48.040Z,97705.05
2019-04-26T08:04:03.771Z,97705.19
2019-04-26T08:09:26.020Z,97705.35
2019-04-26T08:14:25.013Z,97704.46
2019-04-26T08:19:33.651Z,97703.52
2019-04-26T08:24:41.425Z,97695.48
2019-04-26T08:29:49.137Z,97723.14
2019-04-26T08:35:02.327Z,97730.00
2019-04-26T08:40:08.419Z,97730.56
2019-04-26T08:45:27.310Z,97716.15
2019-04-26T08:50:45.898Z,97736.78
2019-04-26T08:55:52.585Z,97736.62
2019-04-26T09:01:09.694Z,97733.17
2019-04-26T09:06:30.538Z,97728.05
2019-04-26T09:11:37.043Z,97733.79
2019-04-26T09:16:50.154Z,97740.58
2019-04-26T09:22:12.485Z,97746.39
2019-04-26T09:27:40.561Z,97747.26
2019-04-26T09:32:50.514Z,97745.98
2019-04-26T09:37:56.601Z,97743.98
2019-04-26T09:43:16.603Z,97751.09
2019-04-26T09:48:25.909Z,97746.80
2019-04-26T09:53:31.277Z,97745.58
2019-04-26T09:58:36.515Z,97751.53
2019-04-26T10:03:41.790Z,97752.99
2019-04-26T10:08:48.155Z,97754.53
2019-04-26T10:14:21.704Z,97754.52
2019-04-26T10:19:34.993Z,97761.50
2019-04-26T10:24:40.648Z,97762.73
2019-04-26T10:29:46.191Z,97759.19
2019-04-26T10:34:51.454Z,97764.08
2019-04-26T10:39:56.682Z,97786.20
2019-04-26T10:45:01.928Z,97768.87
2019-04-26T10:50:08.058Z,97763.44
2019-04-26T10:55:31.691Z,97751.63
2019-04-26T11:00:40.297Z,97754.64
2019-04-26T11:05:49.402Z,97752.19
2019-04-26T11:10:53.211Z,97781.94
2019-04-26T11:15:58.447Z,97791.02
2019-04-26T11:21:04.149Z,97792.30
2019-04-26T11:26:09.490Z,97818.42
2019-04-26T11:31:14.845Z,97795.33
2019-04-26T11:36:20.088Z,97814.77
2019-04-26T11:41:25.352Z,97796.88
2019-04-26T11:46:30.600Z,97807.73
2019-04-26T11:51:35.839Z,97802.84
2019-04-26T11:56:41.092Z,97802.70
2019-04-26T12:01:46.361Z,97799.63
2019-04-26T12:06:56.129Z,97814.59
2019-04-26T12:12:04.839Z,97815.13
2019-04-26T12:17:08.698Z,97810.32
2019-04-26T12:22:13.959Z,97833.44
2019-04-26T12:27:19.454Z,97829.78
2019-04-26T12:32:24.828Z,97846.53
2019-04-26T12:37:30.463Z,97835.16
2019-04-26T12:42:35.711Z,97833.48
2019-04-26T12:47:44.756Z,97842.06
2019-04-26T12:52:51.474Z,97832.50
2019-04-26T12:57:58.084Z,97834.04
2019-04-26T13:03:05.369Z,97835.82
2019-04-26T13:08:13.212Z,97839.26
2019-04-26T13:13:22.375Z,97853.38
2019-04-26T13:18:27.653Z,97869.45
2019-04-26T13:23:33.005Z,97873.83
2019-04-26T13:28:38.270Z,97872.88
2019-04-26T13:33:43.533Z,97868.38
2019-04-26T13:38:49.572Z,97882.53
2019-04-26T13:43:57.129Z,97894.05
2019-04-26T13:49:08.085Z,97882.06
2019-04-26T13:54:16.437Z,97881.16
2019-04-26T13:59:20.630Z,97862.68
2019-04-26T14:04:26.249Z,97851.54
2019-04-26T14:09:31.935Z,97849.15
2019-04-26T14:14:37.200Z,97856.62
2019-04-26T14:19:45.278Z,97875.94
2019-04-26T14:24:58.285Z,97867.80
2019-04-26T14:30:06.520Z,97868.03
2019-04-26T14:35:11.542Z,97867.34
2019-04-26T14:40:18.912Z,97859.45
2019-04-26T14:45:24.346Z,97888.61
2019-04-26T14:50:31.987Z,97892.77
2019-04-26T14:55:37.871Z,97916.38
2019-04-26T15:00:44.993Z,97909.72
2019-04-26T15:06:03.038Z,97915.28
2019-04-26T15:11:08.348Z,97922.25
2019-04-26T15:16:14.451Z,97919.97
2019-04-26T15:21:19.795Z,97913.42
2019-04-26T15:26:29.601Z,97932.79
2019-04-26T15:31:33.099Z,97929.45
2019-04-26T15:36:38.851Z,97938.71
2019-04-26T15:41:54.374Z,97933.94
2019-04-26T15:47:13.111Z,97930.52
2019-04-26T15:52:18.487Z,97930.39
2019-04-26T15:57:30.016Z,97919.26
2019-04-26T16:02:32.132Z,97919.95
2019-04-26T16:07:38.347Z,97941.57
2019-04-26T16:12:43.683Z,97946.20
2019-04-26T16:17:49.879Z,97942.23
2019-04-26T16:22:55.290Z,97969.30
2019-04-26T16:28:30.876Z,97993.27
2019-04-26T16:33:37.049Z,97986.93
2019-04-26T16:38:48.610Z,98010.47
2019-04-26T16:43:53.585Z,98020.34
2019-04-26T16:49:03.733Z,98018.37
2019-04-26T16:54:11.148Z,98034.27
2019-04-26T16:59:22.668Z,98048.77
2019-04-26T17:04:31.801Z,98045.41
2019-04-26T17:09:54.826Z,98068.95
2019-04-26T17:14:40.706Z,98094.99
2019-04-26T17:19:47.440Z,98114.38
2019-04-26T17:25:08.913Z,98110.37
2019-04-26T17:30:20.021Z,98143.91
2019-04-26T17:35:25.544Z,98132.91
2019-04-26T17:40:36.184Z,98114.70
2019-04-26T17:45:40.904Z,98108.95
2019-04-26T17:50:45.326Z,98126.14
2019-04-26T17:55:54.411Z,98155.45
2019-04-26T18:01:01.037Z,98181.86
2019-04-26T18:06:04.817Z,98170.89
2019-04-26T18:11:18.886Z,98186.25
2019-04-26T18:16:17.843Z,98199.59
2019-04-26T18:21:43.761Z,98205.18
2019-04-26T18:26:54.041Z,98171.80
2019-04-26T18:31:59.123Z,98177.13
2019-04-26T18:37:06.921Z,98187.35
2019-04-26T18:42:09.920Z,98166.91
2019-04-26T18:47:27.594Z,98194.63
2019-04-26T18:52:30.921Z,98208.19
2019-04-26T18:57:36.220Z,98196.29
2019-04-26T19:02:42.882Z,98221.52
2019-04-26T19:07:50.076Z,98218.37
2019-04-26T19:13:00.035Z,98231.06
2019-04-26T19:18:23.030Z,98223.02
2019-04-26T19:23:29.172Z,98232.05
2019-04-26T19:28:36.002Z,98236.03
2019-04-26T19:33:42.898Z,98246.88
2019-04-26T19:38:51.205Z,98270.56
2019-04-26T19:43:56.586Z,98261.88
2019-04-26T19:49:21.485Z,98271.97
2019-04-26T19:54:37.068Z,98284.30
2019-04-26T19:59:38.802Z,98299.52
2019-04-26T20:04:44.280Z,98299.75
2019-04-26T20:09:49.829Z,98277.80
2019-04-26T20:14:58.440Z,98286.98
2019-04-26T20:20:02.432Z,98285.77
2019-04-26T20:25:11.772Z,98267.44
2019-04-26T20:30:27.772Z,98268.94
2019-04-26T20:35:32.912Z,98261.17
2019-04-26T20:40:38.178Z,98271.34
2019-04-26T20:46:07.909Z,98283.06
2019-04-26T20:50:52.050Z,98300.44
2019-04-26T20:55:57.939Z,98305.44
2019-04-26T21:01:06.309Z,98302.52
2019-04-26T21:06:11.672Z,98305.72
2019-04-26T21:11:17.284Z,98296.14
2019-04-26T21:16:22.529Z,98301.14
2019-04-26T21:21:27.763Z,98292.95
2019-04-26T21:26:54.460Z,98275.81
2019-04-26T21:32:16.363Z,98271.44
2019-04-26T21:37:43.210Z,98259.89
2019-04-26T21:42:49.268Z,98264.54
2019-04-26T21:47:54.696Z,98248.55
2019-04-26T21:53:03.373Z,98267.93
2019-04-26T21:58:07.863Z,98288.17
2019-04-26T22:03:16.034Z,98286.20
2019-04-26T22:08:24.976Z,98272.50
2019-04-26T22:13:37.320Z,98281.95
2019-04-26T22:19:12.767Z,98271.31
2019-04-26T22:24:33.762Z,98261.59
2019-04-26T22:29:39.102Z,98256.50
2019-04-26T22:34:46.175Z,98277.58
2019-04-26T22:39:51.271Z,98278.45
2019-04-26T22:45:09.400Z,98279.27
2019-04-26T22:50:20.871Z,98285.14
2019-04-26T22:55:26.135Z,98296.22
2019-04-26T23:00:33.022Z,98312.49
2019-04-26T23:05:39.195Z,98312.56
2019-04-26T23:10:48.071Z,98292.59
2019-04-26T23:16:11.462Z,98293.81
2019-04-26T23:21:28.242Z,98285.81
2019-04-26T23:26:33.541Z,98273.83
2019-04-26T23:31:41.679Z,98273.48
2019-04-26T23:36:49.183Z,98285.73
2019-04-26T23:41:53.961Z,98281.59
2019-04-26T23:47:01.139Z,98282.70
2019-04-26T23:52:06.654Z,98278.74
2019-04-26T23:57:13.799Z,98272.36
